sensor_id;sensor_type;location;lat;lon;timestamp;P1;durP1;ratioP1;P2;durP2;ratioP2
11823;SDS011;5969;50.780;7.726;2024-01-27T00:00:24;10.40;;;3.20;;
11823;SDS011;5969;50.780;7.726;2024-01-27T00:02:51;12.05;;;3.40;;
11823;SDS011;5969;50.780;7.726;2024-01-27T00:05:18;11.93;;;3.22;;
11823;SDS011;5969;50.780;7.726;2024-01-27T00:07:45;9.77;;;3.25;;
11823;SDS011;5969;50.780;7.726;2024-01-27T00:10:12;9.25;;;3.25;;
11823;SDS011;5969;50.780;7.726;2024-01-27T00:12:39;11.02;;;3.15;;
11823;SDS011;5969;50.780;7.726;2024-01-27T00:15:08;15.18;;;3.45;;
11823;SDS011;5969;50.780;7.726;2024-01-27T00:17:35;7.63;;;3.95;;
11823;SDS011;5969;50.780;7.726;2024-01-27T00:20:02;11.50;;;3.83;;
11823;SDS011;5969;50.780;7.726;2024-01-27T00:22:30;9.95;;;2.85;;
11823;SDS011;5969;50.780;7.726;2024-01-27T00:24:57;7.78;;;3.40;;
11823;SDS011;5969;50.780;7.726;2024-01-27T00:27:24;6.70;;;2.75;;
11823;SDS011;5969;50.780;7.726;2024-01-27T00:29:51;13.32;;;2.72;;
11823;SDS011;5969;50.780;7.726;2024-01-27T00:32:20;11.95;;;2.78;;
11823;SDS011;5969;50.780;7.726;2024-01-27T00:34:47;7.07;;;2.55;;
11823;SDS011;5969;50.780;7.726;2024-01-27T00:37:15;10.65;;;2.65;;
11823;SDS011;5969;50.780;7.726;2024-01-27T00:39:41;8.60;;;2.75;;
11823;SDS011;5969;50.780;7.726;2024-01-27T00:42:08;10.60;;;2.75;;
11823;SDS011;5969;50.780;7.726;2024-01-27T00:44:35;11.48;;;2.92;;
11823;SDS011;5969;50.780;7.726;2024-01-27T00:47:02;9.05;;;2.92;;
11823;SDS011;5969;50.780;7.726;2024-01-27T00:49:31;12.73;;;2.40;;
11823;SDS011;5969;50.780;7.726;2024-01-27T00:51:58;8.27;;;3.00;;
11823;SDS011;5969;50.780;7.726;2024-01-27T00:54:25;9.93;;;2.83;;
11823;SDS011;5969;50.780;7.726;2024-01-27T00:56:52;11.60;;;3.17;;
11823;SDS011;5969;50.780;7.726;2024-01-27T00:59:19;9.35;;;2.92;;
11823;SDS011;5969;50.780;7.726;2024-01-27T01:01:46;10.35;;;2.80;;
11823;SDS011;5969;50.780;7.726;2024-01-27T01:04:14;7.90;;;2.50;;
11823;SDS011;5969;50.780;7.726;2024-01-27T01:06:43;11.73;;;2.78;;
11823;SDS011;5969;50.780;7.726;2024-01-27T01:09:11;12.93;;;3.33;;
11823;SDS011;5969;50.780;7.726;2024-01-27T01:11:38;10.27;;;3.00;;
11823;SDS011;5969;50.780;7.726;2024-01-27T01:14:07;11.18;;;3.03;;
11823;SDS011;5969;50.780;7.726;2024-01-27T01:16:34;7.82;;;2.47;;
11823;SDS011;5969;50.780;7.726;2024-01-27T01:19:01;11.88;;;3.13;;
11823;SDS011;5969;50.780;7.726;2024-01-27T01:21:29;9.35;;;3.30;;
11823;SDS011;5969;50.780;7.726;2024-01-27T01:23:57;8.00;;;2.45;;
11823;SDS011;5969;50.780;7.726;2024-01-27T01:26:24;7.72;;;2.85;;
11823;SDS011;5969;50.780;7.726;2024-01-27T01:28:51;5.50;;;2.40;;
11823;SDS011;5969;50.780;7.726;2024-01-27T01:31:18;9.68;;;2.63;;
11823;SDS011;5969;50.780;7.726;2024-01-27T01:33:45;10.65;;;2.55;;
11823;SDS011;5969;50.780;7.726;2024-01-27T01:36:13;6.32;;;2.58;;
11823;SDS011;5969;50.780;7.726;2024-01-27T01:38:40;7.30;;;2.55;;
11823;SDS011;5969;50.780;7.726;2024-01-27T01:41:09;8.63;;;2.38;;
11823;SDS011;5969;50.780;7.726;2024-01-27T01:43:36;8.10;;;2.47;;
11823;SDS011;5969;50.780;7.726;2024-01-27T01:46:03;9.07;;;2.92;;
11823;SDS011;5969;50.780;7.726;2024-01-27T01:48:31;9.00;;;2.50;;
11823;SDS011;5969;50.780;7.726;2024-01-27T01:50:58;9.00;;;2.58;;
11823;SDS011;5969;50.780;7.726;2024-01-27T01:53:26;8.18;;;2.53;;
11823;SDS011;5969;50.780;7.726;2024-01-27T01:55:54;10.07;;;2.20;;
11823;SDS011;5969;50.780;7.726;2024-01-27T01:58:23;9.57;;;2.85;;
11823;SDS011;5969;50.780;7.726;2024-01-27T02:00:50;10.18;;;2.80;;
11823;SDS011;5969;50.780;7.726;2024-01-27T02:03:17;11.95;;;3.53;;
11823;SDS011;5969;50.780;7.726;2024-01-27T02:05:45;10.77;;;3.13;;
11823;SDS011;5969;50.780;7.726;2024-01-27T02:08:12;6.65;;;2.83;;
11823;SDS011;5969;50.780;7.726;2024-01-27T02:10:39;6.22;;;2.42;;
11823;SDS011;5969;50.780;7.726;2024-01-27T02:13:15;10.32;;;2.72;;
11823;SDS011;5969;50.780;7.726;2024-01-27T02:15:45;10.90;;;2.85;;
11823;SDS011;5969;50.780;7.726;2024-01-27T02:18:12;11.50;;;3.40;;
11823;SDS011;5969;50.780;7.726;2024-01-27T02:20:39;11.02;;;3.10;;
11823;SDS011;5969;50.780;7.726;2024-01-27T02:23:07;12.25;;;2.90;;
11823;SDS011;5969;50.780;7.726;2024-01-27T02:25:35;7.88;;;2.92;;
11823;SDS011;5969;50.780;7.726;2024-01-27T02:28:03;7.03;;;2.47;;
11823;SDS011;5969;50.780;7.726;2024-01-27T02:30:30;10.95;;;2.63;;
11823;SDS011;5969;50.780;7.726;2024-01-27T02:32:58;8.63;;;2.72;;
11823;SDS011;5969;50.780;7.726;2024-01-27T02:35:25;14.07;;;2.88;;
11823;SDS011;5969;50.780;7.726;2024-01-27T02:37:52;10.25;;;2.55;;
11823;SDS011;5969;50.780;7.726;2024-01-27T02:40:19;6.90;;;2.58;;
11823;SDS011;5969;50.780;7.726;2024-01-27T02:42:48;6.47;;;2.42;;
11823;SDS011;5969;50.780;7.726;2024-01-27T02:45:15;6.85;;;2.58;;
11823;SDS011;5969;50.780;7.726;2024-01-27T02:47:43;11.40;;;2.92;;
11823;SDS011;5969;50.780;7.726;2024-01-27T02:50:10;7.65;;;2.80;;
11823;SDS011;5969;50.780;7.726;2024-01-27T02:52:37;7.88;;;2.90;;
11823;SDS011;5969;50.780;7.726;2024-01-27T02:55:05;11.40;;;2.83;;
11823;SDS011;5969;50.780;7.726;2024-01-27T02:57:32;6.60;;;2.50;;
11823;SDS011;5969;50.780;7.726;2024-01-27T03:00:01;12.98;;;3.30;;
11823;SDS011;5969;50.780;7.726;2024-01-27T03:02:28;8.88;;;2.70;;
11823;SDS011;5969;50.780;7.726;2024-01-27T03:04:55;7.40;;;2.67;;
11823;SDS011;5969;50.780;7.726;2024-01-27T03:07:22;6.97;;;2.40;;
11823;SDS011;5969;50.780;7.726;2024-01-27T03:09:50;12.15;;;3.75;;
11823;SDS011;5969;50.780;7.726;2024-01-27T03:12:17;5.55;;;2.50;;
11823;SDS011;5969;50.780;7.726;2024-01-27T03:14:44;7.60;;;2.50;;
11823;SDS011;5969;50.780;7.726;2024-01-27T03:17:14;6.28;;;2.22;;
11823;SDS011;5969;50.780;7.726;2024-01-27T03:19:42;5.97;;;2.22;;
11823;SDS011;5969;50.780;7.726;2024-01-27T03:22:09;10.32;;;3.15;;
11823;SDS011;5969;50.780;7.726;2024-01-27T03:24:37;8.32;;;2.40;;
11823;SDS011;5969;50.780;7.726;2024-01-27T03:27:04;11.05;;;2.70;;
11823;SDS011;5969;50.780;7.726;2024-01-27T03:29:32;7.93;;;2.40;;
11823;SDS011;5969;50.780;7.726;2024-01-27T03:31:59;4.28;;;2.00;;
11823;SDS011;5969;50.780;7.726;2024-01-27T03:34:27;6.15;;;2.25;;
11823;SDS011;5969;50.780;7.726;2024-01-27T03:36:55;6.28;;;2.33;;
11823;SDS011;5969;50.780;7.726;2024-01-27T03:39:22;9.43;;;2.88;;
11823;SDS011;5969;50.780;7.726;2024-01-27T03:41:49;4.57;;;2.22;;
11823;SDS011;5969;50.780;7.726;2024-01-27T03:44:16;4.20;;;2.00;;
11823;SDS011;5969;50.780;7.726;2024-01-27T03:46:43;7.03;;;2.47;;
11823;SDS011;5969;50.780;7.726;2024-01-27T03:49:17;8.15;;;2.47;;
11823;SDS011;5969;50.780;7.726;2024-01-27T03:51:45;7.38;;;2.65;;
11823;SDS011;5969;50.780;7.726;2024-01-27T03:54:13;8.98;;;2.90;;
11823;SDS011;5969;50.780;7.726;2024-01-27T03:56:40;8.90;;;2.38;;
11823;SDS011;5969;50.780;7.726;2024-01-27T03:59:08;6.60;;;2.63;;
11823;SDS011;5969;50.780;7.726;2024-01-27T04:01:36;8.45;;;2.53;;
11823;SDS011;5969;50.780;7.726;2024-01-27T04:04:03;8.05;;;2.70;;
11823;SDS011;5969;50.780;7.726;2024-01-27T04:06:35;10.35;;;2.83;;
11823;SDS011;5969;50.780;7.726;2024-01-27T04:09:04;6.03;;;2.63;;
11823;SDS011;5969;50.780;7.726;2024-01-27T04:11:33;5.38;;;2.67;;
11823;SDS011;5969;50.780;7.726;2024-01-27T04:14:01;10.43;;;3.33;;
11823;SDS011;5969;50.780;7.726;2024-01-27T04:16:28;11.15;;;2.92;;
11823;SDS011;5969;50.780;7.726;2024-01-27T04:18:56;14.18;;;2.97;;
11823;SDS011;5969;50.780;7.726;2024-01-27T04:21:23;7.47;;;2.55;;
11823;SDS011;5969;50.780;7.726;2024-01-27T04:23:50;9.57;;;2.55;;
11823;SDS011;5969;50.780;7.726;2024-01-27T04:26:28;10.52;;;2.80;;
11823;SDS011;5969;50.780;7.726;2024-01-27T04:28:55;10.15;;;2.92;;
11823;SDS011;5969;50.780;7.726;2024-01-27T04:31:22;9.25;;;2.40;;
11823;SDS011;5969;50.780;7.726;2024-01-27T04:33:49;11.50;;;2.95;;
11823;SDS011;5969;50.780;7.726;2024-01-27T04:36:24;8.90;;;2.22;;
11823;SDS011;5969;50.780;7.726;2024-01-27T04:38:51;4.65;;;2.60;;
11823;SDS011;5969;50.780;7.726;2024-01-27T04:41:19;6.63;;;2.67;;
11823;SDS011;5969;50.780;7.726;2024-01-27T04:43:47;4.22;;;2.33;;
11823;SDS011;5969;50.780;7.726;2024-01-27T04:46:15;5.70;;;2.15;;
11823;SDS011;5969;50.780;7.726;2024-01-27T04:48:42;7.07;;;2.55;;
11823;SDS011;5969;50.780;7.726;2024-01-27T04:51:09;7.50;;;2.38;;
11823;SDS011;5969;50.780;7.726;2024-01-27T04:53:37;7.28;;;2.50;;
11823;SDS011;5969;50.780;7.726;2024-01-27T04:56:04;9.63;;;2.20;;
11823;SDS011;5969;50.780;7.726;2024-01-27T04:58:33;5.75;;;2.33;;
11823;SDS011;5969;50.780;7.726;2024-01-27T05:01:01;7.43;;;2.70;;
11823;SDS011;5969;50.780;7.726;2024-01-27T05:03:29;5.13;;;2.60;;
11823;SDS011;5969;50.780;7.726;2024-01-27T05:05:56;4.85;;;2.42;;
11823;SDS011;5969;50.780;7.726;2024-01-27T05:08:23;9.32;;;2.28;;
11823;SDS011;5969;50.780;7.726;2024-01-27T05:10:50;5.63;;;2.10;;
11823;SDS011;5969;50.780;7.726;2024-01-27T05:13:18;8.15;;;2.55;;
11823;SDS011;5969;50.780;7.726;2024-01-27T05:15:45;8.05;;;2.45;;
11823;SDS011;5969;50.780;7.726;2024-01-27T05:18:13;7.78;;;2.95;;
11823;SDS011;5969;50.780;7.726;2024-01-27T05:20:41;11.77;;;2.63;;
11823;SDS011;5969;50.780;7.726;2024-01-27T05:23:08;5.50;;;2.03;;
11823;SDS011;5969;50.780;7.726;2024-01-27T05:25:35;3.45;;;1.92;;
11823;SDS011;5969;50.780;7.726;2024-01-27T05:28:02;7.05;;;2.83;;
11823;SDS011;5969;50.780;7.726;2024-01-27T05:30:30;7.13;;;2.55;;
11823;SDS011;5969;50.780;7.726;2024-01-27T05:32:57;6.38;;;2.45;;
11823;SDS011;5969;50.780;7.726;2024-01-27T05:35:26;5.38;;;2.45;;
11823;SDS011;5969;50.780;7.726;2024-01-27T05:37:53;6.43;;;2.65;;
11823;SDS011;5969;50.780;7.726;2024-01-27T05:40:20;5.93;;;2.28;;
11823;SDS011;5969;50.780;7.726;2024-01-27T05:42:47;9.32;;;2.58;;
11823;SDS011;5969;50.780;7.726;2024-01-27T05:45:15;8.40;;;3.70;;
11823;SDS011;5969;50.780;7.726;2024-01-27T05:47:42;6.82;;;2.55;;
11823;SDS011;5969;50.780;7.726;2024-01-27T05:50:10;7.85;;;2.80;;
11823;SDS011;5969;50.780;7.726;2024-01-27T05:52:38;6.85;;;2.30;;
11823;SDS011;5969;50.780;7.726;2024-01-27T05:55:06;4.78;;;2.35;;
11823;SDS011;5969;50.780;7.726;2024-01-27T05:57:33;8.57;;;2.50;;
11823;SDS011;5969;50.780;7.726;2024-01-27T06:00:08;7.18;;;2.30;;
11823;SDS011;5969;50.780;7.726;2024-01-27T06:02:35;7.00;;;2.42;;
11823;SDS011;5969;50.780;7.726;2024-01-27T06:05:03;8.07;;;2.40;;
11823;SDS011;5969;50.780;7.726;2024-01-27T06:07:30;6.15;;;2.25;;
11823;SDS011;5969;50.780;7.726;2024-01-27T06:09:59;7.70;;;2.00;;
11823;SDS011;5969;50.780;7.726;2024-01-27T06:12:32;10.60;;;5.68;;
11823;SDS011;5969;50.780;7.726;2024-01-27T06:14:59;9.82;;;4.82;;
11823;SDS011;5969;50.780;7.726;2024-01-27T06:17:28;7.15;;;4.20;;
11823;SDS011;5969;50.780;7.726;2024-01-27T06:19:55;7.85;;;3.70;;
11823;SDS011;5969;50.780;7.726;2024-01-27T06:22:22;4.82;;;2.50;;
11823;SDS011;5969;50.780;7.726;2024-01-27T06:24:49;10.02;;;4.05;;
11823;SDS011;5969;50.780;7.726;2024-01-27T06:27:18;8.40;;;3.40;;
11823;SDS011;5969;50.780;7.726;2024-01-27T06:29:45;4.53;;;2.40;;
11823;SDS011;5969;50.780;7.726;2024-01-27T06:32:14;11.98;;;3.20;;
11823;SDS011;5969;50.780;7.726;2024-01-27T06:34:41;6.32;;;2.72;;
11823;SDS011;5969;50.780;7.726;2024-01-27T06:37:08;6.38;;;3.28;;
11823;SDS011;5969;50.780;7.726;2024-01-27T06:39:36;5.78;;;2.63;;
11823;SDS011;5969;50.780;7.726;2024-01-27T06:42:03;9.55;;;3.30;;
11823;SDS011;5969;50.780;7.726;2024-01-27T06:44:32;3.55;;;2.53;;
11823;SDS011;5969;50.780;7.726;2024-01-27T06:46:59;5.43;;;2.83;;
11823;SDS011;5969;50.780;7.726;2024-01-27T06:49:27;7.65;;;3.08;;
11823;SDS011;5969;50.780;7.726;2024-01-27T06:51:54;8.48;;;2.95;;
11823;SDS011;5969;50.780;7.726;2024-01-27T06:54:21;5.50;;;3.05;;
11823;SDS011;5969;50.780;7.726;2024-01-27T06:56:48;7.57;;;2.85;;
11823;SDS011;5969;50.780;7.726;2024-01-27T06:59:16;6.38;;;2.78;;
11823;SDS011;5969;50.780;7.726;2024-01-27T07:01:46;6.53;;;2.95;;
11823;SDS011;5969;50.780;7.726;2024-01-27T07:04:14;6.35;;;2.90;;
11823;SDS011;5969;50.780;7.726;2024-01-27T07:06:42;7.40;;;2.70;;
11823;SDS011;5969;50.780;7.726;2024-01-27T07:09:16;6.50;;;2.92;;
11823;SDS011;5969;50.780;7.726;2024-01-27T07:11:44;7.75;;;3.00;;
11823;SDS011;5969;50.780;7.726;2024-01-27T07:14:21;10.63;;;3.40;;
11823;SDS011;5969;50.780;7.726;2024-01-27T07:16:55;7.97;;;3.53;;
11823;SDS011;5969;50.780;7.726;2024-01-27T07:22:29;7.85;;;3.50;;
11823;SDS011;5969;50.780;7.726;2024-01-27T07:24:56;8.25;;;4.30;;
11823;SDS011;5969;50.780;7.726;2024-01-27T07:27:27;6.88;;;4.35;;
11823;SDS011;5969;50.780;7.726;2024-01-27T07:29:57;7.80;;;4.13;;
11823;SDS011;5969;50.780;7.726;2024-01-27T07:32:46;9.88;;;5.95;;
11823;SDS011;5969;50.780;7.726;2024-01-27T07:38:20;10.15;;;5.53;;
11823;SDS011;5969;50.780;7.726;2024-01-27T07:40:50;10.07;;;5.82;;
11823;SDS011;5969;50.780;7.726;2024-01-27T07:43:18;9.30;;;4.97;;
11823;SDS011;5969;50.780;7.726;2024-01-27T07:45:47;8.65;;;4.82;;
11823;SDS011;5969;50.780;7.726;2024-01-27T07:48:19;9.18;;;4.45;;
11823;SDS011;5969;50.780;7.726;2024-01-27T07:50:49;8.90;;;4.32;;
11823;SDS011;5969;50.780;7.726;2024-01-27T07:53:17;13.05;;;6.57;;
11823;SDS011;5969;50.780;7.726;2024-01-27T07:55:44;11.68;;;7.20;;
11823;SDS011;5969;50.780;7.726;2024-01-27T07:58:14;8.68;;;5.43;;
11823;SDS011;5969;50.780;7.726;2024-01-27T08:00:45;8.73;;;4.72;;
11823;SDS011;5969;50.780;7.726;2024-01-27T08:03:16;10.10;;;5.05;;
11823;SDS011;5969;50.780;7.726;2024-01-27T08:05:50;10.82;;;5.13;;
11823;SDS011;5969;50.780;7.726;2024-01-27T08:08:21;11.18;;;4.90;;
11823;SDS011;5969;50.780;7.726;2024-01-27T08:10:48;10.18;;;4.05;;
11823;SDS011;5969;50.780;7.726;2024-01-27T08:13:17;7.65;;;4.70;;
11823;SDS011;5969;50.780;7.726;2024-01-27T08:15:55;10.93;;;4.50;;
11823;SDS011;5969;50.780;7.726;2024-01-27T08:18:30;10.98;;;4.68;;
11823;SDS011;5969;50.780;7.726;2024-01-27T08:21:02;13.48;;;4.72;;
11823;SDS011;5969;50.780;7.726;2024-01-27T08:23:34;6.90;;;4.32;;
11823;SDS011;5969;50.780;7.726;2024-01-27T08:26:06;8.88;;;4.47;;
11823;SDS011;5969;50.780;7.726;2024-01-27T08:28:34;14.15;;;4.75;;
11823;SDS011;5969;50.780;7.726;2024-01-27T08:31:01;10.52;;;4.60;;
11823;SDS011;5969;50.780;7.726;2024-01-27T08:33:29;8.65;;;4.50;;
11823;SDS011;5969;50.780;7.726;2024-01-27T08:36:14;6.15;;;3.58;;
11823;SDS011;5969;50.780;7.726;2024-01-27T08:38:42;8.98;;;3.92;;
11823;SDS011;5969;50.780;7.726;2024-01-27T08:41:11;7.18;;;3.13;;
11823;SDS011;5969;50.780;7.726;2024-01-27T08:43:46;6.97;;;3.10;;
11823;SDS011;5969;50.780;7.726;2024-01-27T08:46:27;6.38;;;2.97;;
11823;SDS011;5969;50.780;7.726;2024-01-27T08:48:55;8.10;;;2.50;;
11823;SDS011;5969;50.780;7.726;2024-01-27T08:51:24;8.75;;;3.03;;
11823;SDS011;5969;50.780;7.726;2024-01-27T08:53:51;7.80;;;3.30;;
11823;SDS011;5969;50.780;7.726;2024-01-27T08:56:21;7.45;;;2.60;;
11823;SDS011;5969;50.780;7.726;2024-01-27T08:59:10;8.75;;;2.75;;
11823;SDS011;5969;50.780;7.726;2024-01-27T09:01:41;10.43;;;2.95;;
11823;SDS011;5969;50.780;7.726;2024-01-27T09:04:09;12.00;;;3.00;;
11823;SDS011;5969;50.780;7.726;2024-01-27T09:06:38;9.68;;;2.63;;
11823;SDS011;5969;50.780;7.726;2024-01-27T09:09:10;9.57;;;2.88;;
11823;SDS011;5969;50.780;7.726;2024-01-27T09:11:45;9.30;;;3.50;;
11823;SDS011;5969;50.780;7.726;2024-01-27T09:14:16;7.47;;;2.60;;
11823;SDS011;5969;50.780;7.726;2024-01-27T09:16:53;7.60;;;2.67;;
11823;SDS011;5969;50.780;7.726;2024-01-27T09:19:23;8.38;;;2.97;;
11823;SDS011;5969;50.780;7.726;2024-01-27T09:21:52;6.50;;;2.53;;
11823;SDS011;5969;50.780;7.726;2024-01-27T09:24:19;6.47;;;3.30;;
11823;SDS011;5969;50.780;7.726;2024-01-27T09:26:49;9.43;;;3.45;;
11823;SDS011;5969;50.780;7.726;2024-01-27T09:29:17;6.93;;;3.30;;
11823;SDS011;5969;50.780;7.726;2024-01-27T09:31:45;9.05;;;3.45;;
11823;SDS011;5969;50.780;7.726;2024-01-27T09:34:13;8.10;;;3.25;;
11823;SDS011;5969;50.780;7.726;2024-01-27T09:36:49;9.73;;;2.92;;
11823;SDS011;5969;50.780;7.726;2024-01-27T09:39:31;9.88;;;3.13;;
11823;SDS011;5969;50.780;7.726;2024-01-27T09:41:59;8.40;;;3.15;;
11823;SDS011;5969;50.780;7.726;2024-01-27T09:44:31;6.20;;;2.83;;
11823;SDS011;5969;50.780;7.726;2024-01-27T09:46:59;5.78;;;2.92;;
11823;SDS011;5969;50.780;7.726;2024-01-27T09:49:26;10.38;;;3.20;;
11823;SDS011;5969;50.780;7.726;2024-01-27T09:52:01;7.97;;;3.28;;
11823;SDS011;5969;50.780;7.726;2024-01-27T09:54:28;7.07;;;3.67;;
11823;SDS011;5969;50.780;7.726;2024-01-27T09:57:00;12.10;;;3.70;;
11823;SDS011;5969;50.780;7.726;2024-01-27T09:59:28;7.97;;;3.17;;
11823;SDS011;5969;50.780;7.726;2024-01-27T10:02:04;9.25;;;3.17;;
11823;SDS011;5969;50.780;7.726;2024-01-27T10:04:36;10.15;;;3.72;;
11823;SDS011;5969;50.780;7.726;2024-01-27T10:07:19;8.60;;;3.28;;
11823;SDS011;5969;50.780;7.726;2024-01-27T10:09:52;7.63;;;3.15;;
11823;SDS011;5969;50.780;7.726;2024-01-27T10:12:36;8.38;;;3.15;;
11823;SDS011;5969;50.780;7.726;2024-01-27T10:15:05;13.93;;;3.20;;
11823;SDS011;5969;50.780;7.726;2024-01-27T10:17:33;7.93;;;3.38;;
11823;SDS011;5969;50.780;7.726;2024-01-27T10:20:03;6.50;;;2.65;;
11823;SDS011;5969;50.780;7.726;2024-01-27T10:22:36;8.00;;;3.00;;
11823;SDS011;5969;50.780;7.726;2024-01-27T10:25:04;4.90;;;3.05;;
11823;SDS011;5969;50.780;7.726;2024-01-27T10:27:32;7.80;;;3.10;;
11823;SDS011;5969;50.780;7.726;2024-01-27T10:30:16;6.38;;;2.90;;
11823;SDS011;5969;50.780;7.726;2024-01-27T10:32:53;7.40;;;2.92;;
11823;SDS011;5969;50.780;7.726;2024-01-27T10:35:27;6.45;;;2.80;;
11823;SDS011;5969;50.780;7.726;2024-01-27T10:37:55;7.35;;;3.03;;
11823;SDS011;5969;50.780;7.726;2024-01-27T10:40:22;7.60;;;2.90;;
11823;SDS011;5969;50.780;7.726;2024-01-27T10:42:53;8.32;;;3.05;;
11823;SDS011;5969;50.780;7.726;2024-01-27T10:45:27;6.28;;;2.30;;
11823;SDS011;5969;50.780;7.726;2024-01-27T10:47:56;4.95;;;2.35;;
11823;SDS011;5969;50.780;7.726;2024-01-27T10:50:23;8.52;;;3.22;;
11823;SDS011;5969;50.780;7.726;2024-01-27T10:52:50;8.40;;;3.00;;
11823;SDS011;5969;50.780;7.726;2024-01-27T10:55:35;8.57;;;3.40;;
11823;SDS011;5969;50.780;7.726;2024-01-27T10:58:06;8.82;;;2.83;;
11823;SDS011;5969;50.780;7.726;2024-01-27T11:00:35;9.80;;;3.05;;
11823;SDS011;5969;50.780;7.726;2024-01-27T11:03:04;7.40;;;2.83;;
11823;SDS011;5969;50.780;7.726;2024-01-27T11:05:36;5.85;;;2.45;;
11823;SDS011;5969;50.780;7.726;2024-01-27T11:08:06;7.82;;;2.40;;
11823;SDS011;5969;50.780;7.726;2024-01-27T11:10:35;6.72;;;2.70;;
11823;SDS011;5969;50.780;7.726;2024-01-27T11:22:26;10.45;;;3.42;;
11823;SDS011;5969;50.780;7.726;2024-01-27T11:25:04;7.95;;;2.90;;
11823;SDS011;5969;50.780;7.726;2024-01-27T11:27:32;6.70;;;3.00;;
11823;SDS011;5969;50.780;7.726;2024-01-27T11:29:59;6.93;;;2.70;;
11823;SDS011;5969;50.780;7.726;2024-01-27T11:32:26;5.32;;;2.75;;
11823;SDS011;5969;50.780;7.726;2024-01-27T11:34:54;6.50;;;2.45;;
11823;SDS011;5969;50.780;7.726;2024-01-27T11:37:21;6.45;;;2.20;;
11823;SDS011;5969;50.780;7.726;2024-01-27T11:39:51;9.75;;;2.47;;
11823;SDS011;5969;50.780;7.726;2024-01-27T11:42:18;8.18;;;2.40;;
11823;SDS011;5969;50.780;7.726;2024-01-27T11:44:45;6.82;;;2.92;;
11823;SDS011;5969;50.780;7.726;2024-01-27T11:47:16;8.70;;;2.60;;
11823;SDS011;5969;50.780;7.726;2024-01-27T11:49:43;10.00;;;2.88;;
11823;SDS011;5969;50.780;7.726;2024-01-27T11:52:10;11.15;;;2.50;;
11823;SDS011;5969;50.780;7.726;2024-01-27T11:54:37;8.13;;;2.75;;
11823;SDS011;5969;50.780;7.726;2024-01-27T11:57:06;7.97;;;2.60;;
11823;SDS011;5969;50.780;7.726;2024-01-27T11:59:33;5.70;;;2.05;;
11823;SDS011;5969;50.780;7.726;2024-01-27T12:02:00;8.00;;;2.35;;
11823;SDS011;5969;50.780;7.726;2024-01-27T12:04:27;8.77;;;2.42;;
11823;SDS011;5969;50.780;7.726;2024-01-27T12:06:55;9.15;;;2.35;;
11823;SDS011;5969;50.780;7.726;2024-01-27T12:09:22;7.35;;;2.40;;
11823;SDS011;5969;50.780;7.726;2024-01-27T12:11:49;8.48;;;2.47;;
11823;SDS011;5969;50.780;7.726;2024-01-27T12:14:18;7.57;;;2.05;;
11823;SDS011;5969;50.780;7.726;2024-01-27T12:16:45;7.05;;;2.50;;
11823;SDS011;5969;50.780;7.726;2024-01-27T12:19:12;6.97;;;2.60;;
11823;SDS011;5969;50.780;7.726;2024-01-27T12:21:46;5.80;;;2.25;;
11823;SDS011;5969;50.780;7.726;2024-01-27T12:24:15;7.97;;;2.70;;
11823;SDS011;5969;50.780;7.726;2024-01-27T12:26:43;10.00;;;2.65;;
11823;SDS011;5969;50.780;7.726;2024-01-27T12:29:10;6.20;;;2.60;;
11823;SDS011;5969;50.780;7.726;2024-01-27T12:31:38;9.50;;;2.47;;
11823;SDS011;5969;50.780;7.726;2024-01-27T12:34:05;7.72;;;1.90;;
11823;SDS011;5969;50.780;7.726;2024-01-27T12:36:39;6.40;;;2.38;;
11823;SDS011;5969;50.780;7.726;2024-01-27T12:39:07;7.38;;;2.08;;
11823;SDS011;5969;50.780;7.726;2024-01-27T12:41:35;7.97;;;2.35;;
11823;SDS011;5969;50.780;7.726;2024-01-27T12:44:02;7.22;;;2.75;;
11823;SDS011;5969;50.780;7.726;2024-01-27T12:46:30;9.27;;;3.03;;
11823;SDS011;5969;50.780;7.726;2024-01-27T12:48:59;7.82;;;2.38;;
11823;SDS011;5969;50.780;7.726;2024-01-27T12:51:26;9.63;;;2.60;;
11823;SDS011;5969;50.780;7.726;2024-01-27T12:53:53;9.27;;;2.38;;
11823;SDS011;5969;50.780;7.726;2024-01-27T12:56:20;11.60;;;2.70;;
11823;SDS011;5969;50.780;7.726;2024-01-27T12:58:47;8.98;;;1.85;;
11823;SDS011;5969;50.780;7.726;2024-01-27T13:01:15;8.07;;;2.10;;
11823;SDS011;5969;50.780;7.726;2024-01-27T13:03:42;7.43;;;2.35;;
11823;SDS011;5969;50.780;7.726;2024-01-27T13:06:10;6.88;;;2.13;;
11823;SDS011;5969;50.780;7.726;2024-01-27T13:08:37;7.93;;;2.13;;
11823;SDS011;5969;50.780;7.726;2024-01-27T13:11:05;9.15;;;2.63;;
11823;SDS011;5969;50.780;7.726;2024-01-27T13:13:32;8.07;;;2.30;;
11823;SDS011;5969;50.780;7.726;2024-01-27T13:15:59;4.50;;;1.80;;
11823;SDS011;5969;50.780;7.726;2024-01-27T13:18:27;7.05;;;2.00;;
11823;SDS011;5969;50.780;7.726;2024-01-27T13:20:54;5.82;;;2.20;;
11823;SDS011;5969;50.780;7.726;2024-01-27T13:23:23;9.25;;;2.17;;
11823;SDS011;5969;50.780;7.726;2024-01-27T13:25:50;7.05;;;2.13;;
11823;SDS011;5969;50.780;7.726;2024-01-27T13:28:17;7.22;;;2.60;;
11823;SDS011;5969;50.780;7.726;2024-01-27T13:30:45;9.68;;;2.10;;
11823;SDS011;5969;50.780;7.726;2024-01-27T13:33:13;4.03;;;1.90;;
11823;SDS011;5969;50.780;7.726;2024-01-27T13:35:40;5.38;;;1.85;;
11823;SDS011;5969;50.780;7.726;2024-01-27T13:38:11;7.00;;;2.50;;
11823;SDS011;5969;50.780;7.726;2024-01-27T13:40:40;6.90;;;1.90;;
11823;SDS011;5969;50.780;7.726;2024-01-27T13:43:07;7.75;;;2.03;;
11823;SDS011;5969;50.780;7.726;2024-01-27T13:45:34;6.38;;;1.92;;
11823;SDS011;5969;50.780;7.726;2024-01-27T13:48:02;7.32;;;2.45;;
11823;SDS011;5969;50.780;7.726;2024-01-27T13:50:29;5.43;;;1.88;;
11823;SDS011;5969;50.780;7.726;2024-01-27T13:52:57;7.57;;;1.83;;
11823;SDS011;5969;50.780;7.726;2024-01-27T13:55:24;7.40;;;2.50;;
11823;SDS011;5969;50.780;7.726;2024-01-27T13:57:52;7.10;;;2.25;;
11823;SDS011;5969;50.780;7.726;2024-01-27T14:00:20;3.92;;;1.70;;
11823;SDS011;5969;50.780;7.726;2024-01-27T14:02:47;7.25;;;2.20;;
11823;SDS011;5969;50.780;7.726;2024-01-27T14:05:14;8.80;;;2.05;;
11823;SDS011;5969;50.780;7.726;2024-01-27T14:07:42;7.65;;;2.17;;
11823;SDS011;5969;50.780;7.726;2024-01-27T14:10:09;5.22;;;1.85;;
11823;SDS011;5969;50.780;7.726;2024-01-27T14:12:36;6.25;;;1.67;;
11823;SDS011;5969;50.780;7.726;2024-01-27T14:15:05;5.88;;;2.15;;
11823;SDS011;5969;50.780;7.726;2024-01-27T14:17:32;5.13;;;1.90;;
11823;SDS011;5969;50.780;7.726;2024-01-27T14:20:00;8.45;;;2.30;;
11823;SDS011;5969;50.780;7.726;2024-01-27T14:22:28;7.30;;;2.20;;
11823;SDS011;5969;50.780;7.726;2024-01-27T14:24:55;4.13;;;1.60;;
11823;SDS011;5969;50.780;7.726;2024-01-27T14:27:22;7.85;;;1.98;;
11823;SDS011;5969;50.780;7.726;2024-01-27T14:29:51;5.70;;;1.65;;
11823;SDS011;5969;50.780;7.726;2024-01-27T14:32:20;7.25;;;2.15;;
11823;SDS011;5969;50.780;7.726;2024-01-27T14:34:48;3.28;;;1.70;;
11823;SDS011;5969;50.780;7.726;2024-01-27T14:37:15;6.00;;;2.00;;
11823;SDS011;5969;50.780;7.726;2024-01-27T14:39:42;5.97;;;1.90;;
11823;SDS011;5969;50.780;7.726;2024-01-27T14:42:10;6.93;;;2.03;;
11823;SDS011;5969;50.780;7.726;2024-01-27T14:44:37;4.65;;;1.80;;
11823;SDS011;5969;50.780;7.726;2024-01-27T14:47:05;6.32;;;2.03;;
11823;SDS011;5969;50.780;7.726;2024-01-27T14:49:34;5.22;;;1.88;;
11823;SDS011;5969;50.780;7.726;2024-01-27T14:52:02;5.97;;;1.90;;
11823;SDS011;5969;50.780;7.726;2024-01-27T14:54:28;5.65;;;1.80;;
11823;SDS011;5969;50.780;7.726;2024-01-27T14:56:55;6.75;;;2.13;;
11823;SDS011;5969;50.780;7.726;2024-01-27T14:59:23;4.72;;;1.88;;
11823;SDS011;5969;50.780;7.726;2024-01-27T15:01:50;7.03;;;1.92;;
11823;SDS011;5969;50.780;7.726;2024-01-27T15:04:17;5.85;;;1.98;;
11823;SDS011;5969;50.780;7.726;2024-01-27T15:06:45;3.45;;;1.70;;
11823;SDS011;5969;50.780;7.726;2024-01-27T15:09:12;6.15;;;2.00;;
11823;SDS011;5969;50.780;7.726;2024-01-27T15:11:40;5.15;;;1.60;;
11823;SDS011;5969;50.780;7.726;2024-01-27T15:14:08;5.97;;;1.77;;
11823;SDS011;5969;50.780;7.726;2024-01-27T15:16:35;8.88;;;2.63;;
11823;SDS011;5969;50.780;7.726;2024-01-27T15:19:02;4.40;;;1.65;;
11823;SDS011;5969;50.780;7.726;2024-01-27T15:21:30;8.23;;;2.83;;